sensor_id;sensor_type;location;lat;lon;timestamp;pressure;altitude;pressure_sealevel;temperature;humidity
77281;BME280;66339;47.262;17.144;2024-01-06T00:00:53;99035.66;;;20.63;43.46
77281;BME280;66339;47.262;17.144;2024-01-06T00:03:24;99029.81;;;20.61;43.42
77281;BME280;66339;47.262;17.144;2024-01-06T00:05:50;99028.22;;;20.59;43.47
77281;BME280;66339;47.262;17.144;2024-01-06T00:08:17;99026.63;;;20.58;43.48
77281;BME280;66339;47.262;17.144;2024-01-06T00:10:47;99038.97;;;20.59;43.49
77281;BME280;66339;47.262;17.144;2024-01-06T00:13:14;99031.22;;;20.58;43.51
77281;BME280;66339;47.262;17.144;2024-01-06T00:15:47;99033.75;;;20.54;43.56
77281;BME280;66339;47.262;17.144;2024-01-06T00:18:15;99026.00;;;20.53;43.53
77281;BME280;66339;47.262;17.144;2024-01-06T00:20:42;99017.63;;;20.54;43.57
77281;BME280;66339;47.262;17.144;2024-01-06T00:23:12;99011.78;;;20.52;43.55
77281;BME280;66339;47.262;17.144;2024-01-06T00:25:39;99005.13;;;20.50;43.51
77281;BME280;66339;47.262;17.144;2024-01-06T00:28:05;99003.81;;;20.47;43.51
77281;BME280;66339;47.262;17.144;2024-01-06T00:30:32;98998.47;;;20.47;43.58
77281;BME280;66339;47.262;17.144;2024-01-06T00:33:02;98996.88;;;20.46;43.66
77281;BME280;66339;47.262;17.144;2024-01-06T00:35:29;99002.56;;;20.45;43.62
77281;BME280;66339;47.262;17.144;2024-01-06T00:38:03;98999.88;;;20.45;43.60
77281;BME280;66339;47.262;17.144;2024-01-06T00:40:32;99002.09;;;20.43;43.62
77281;BME280;66339;47.262;17.144;2024-01-06T00:43:06;99002.87;;;20.43;43.60
77281;BME280;66339;47.262;17.144;2024-01-06T00:45:32;99005.09;;;20.41;43.69
77281;BME280;66339;47.262;17.144;2024-01-06T00:48:02;99004.78;;;20.43;43.65
77281;BME280;66339;47.262;17.144;2024-01-06T00:50:29;99015.84;;;20.41;43.77
77281;BME280;66339;47.262;17.144;2024-01-06T00:52:58;99018.03;;;20.39;43.77
77281;BME280;66339;47.262;17.144;2024-01-06T00:55:31;99015.34;;;20.39;43.80
77281;BME280;66339;47.262;17.144;2024-01-06T00:57:58;99011.09;;;20.38;43.66
77281;BME280;66339;47.262;17.144;2024-01-06T01:00:31;99005.72;;;20.38;43.60
77281;BME280;66339;47.262;17.144;2024-01-06T01:02:57;99008.41;;;20.38;43.73
77281;BME280;66339;47.262;17.144;2024-01-06T01:05:33;99010.63;;;20.36;43.67
77281;BME280;66339;47.262;17.144;2024-01-06T01:08:00;99006.34;;;20.35;43.72
77281;BME280;66339;47.262;17.144;2024-01-06T01:10:27;99011.72;;;20.35;43.75
77281;BME280;66339;47.262;17.144;2024-01-06T01:12:55;99008.56;;;20.33;43.65
77281;BME280;66339;47.262;17.144;2024-01-06T01:15:22;99007.78;;;20.32;43.75
77281;BME280;66339;47.262;17.144;2024-01-06T01:17:53;99016.13;;;20.31;43.78
77281;BME280;66339;47.262;17.144;2024-01-06T01:20:22;99016.13;;;20.31;43.74
77281;BME280;66339;47.262;17.144;2024-01-06T01:22:50;99017.72;;;20.32;43.71
77281;BME280;66339;47.262;17.144;2024-01-06T01:25:19;99014.53;;;20.30;43.65
77281;BME280;66339;47.262;17.144;2024-01-06T01:27:49;99008.38;;;20.29;43.73
77281;BME280;66339;47.262;17.144;2024-01-06T01:30:19;99014.88;;;20.28;43.78
77281;BME280;66339;47.262;17.144;2024-01-06T01:32:49;99011.41;;;20.28;43.84
77281;BME280;66339;47.262;17.144;2024-01-06T01:35:19;99008.72;;;20.28;43.74
77281;BME280;66339;47.262;17.144;2024-01-06T01:37:46;99004.41;;;20.27;43.83
77281;BME280;66339;47.262;17.144;2024-01-06T01:40:13;98992.09;;;20.26;43.76
77281;BME280;66339;47.262;17.144;2024-01-06T01:42:43;98983.56;;;20.24;43.87
77281;BME280;66339;47.262;17.144;2024-01-06T01:45:10;98994.31;;;20.24;43.84
77281;BME280;66339;47.262;17.144;2024-01-06T01:47:39;98988.94;;;20.24;43.90
77281;BME280;66339;47.262;17.144;2024-01-06T01:50:07;98982.00;;;20.23;43.81
77281;BME280;66339;47.262;17.144;2024-01-06T01:52:35;98979.63;;;20.21;43.73
77281;BME280;66339;47.262;17.144;2024-01-06T01:55:05;98982.59;;;20.20;43.76
77281;BME280;66339;47.262;17.144;2024-01-06T01:57:32;98986.91;;;20.21;43.82
77281;BME280;66339;47.262;17.144;2024-01-06T02:00:00;98982.59;;;20.20;43.75
77281;BME280;66339;47.262;17.144;2024-01-06T02:02:30;98984.22;;;20.21;43.75
77281;BME280;66339;47.262;17.144;2024-01-06T02:04:57;98981.03;;;20.19;43.85
77281;BME280;66339;47.262;17.144;2024-01-06T02:07:24;98977.56;;;20.18;43.76
77281;BME280;66339;47.262;17.144;2024-01-06T02:09:51;98969.84;;;20.17;43.84
77281;BME280;66339;47.262;17.144;2024-01-06T02:12:18;98965.53;;;20.16;43.85
77281;BME280;66339;47.262;17.144;2024-01-06T02:14:44;98971.72;;;20.16;43.78
77281;BME280;66339;47.262;17.144;2024-01-06T02:17:13;98966.66;;;20.15;43.82
77281;BME280;66339;47.262;17.144;2024-01-06T02:19:41;98965.88;;;20.14;43.77
77281;BME280;66339;47.262;17.144;2024-01-06T02:22:08;98960.81;;;20.13;43.87
77281;BME280;66339;47.262;17.144;2024-01-06T02:24:41;98958.59;;;20.15;43.88
77281;BME280;66339;47.262;17.144;2024-01-06T02:27:09;98951.94;;;20.12;43.81
77281;BME280;66339;47.262;17.144;2024-01-06T02:29:38;98947.69;;;20.11;43.82
77281;BME280;66339;47.262;17.144;2024-01-06T02:32:11;98953.84;;;20.11;43.87
77281;BME280;66339;47.262;17.144;2024-01-06T02:34:41;98940.75;;;20.10;43.82
77281;BME280;66339;47.262;17.144;2024-01-06T02:37:11;98939.97;;;20.09;43.71
77281;BME280;66339;47.262;17.144;2024-01-06T02:39:39;98939.97;;;20.09;43.85
77281;BME280;66339;47.262;17.144;2024-01-06T02:42:06;98942.94;;;20.08;43.81
77281;BME280;66339;47.262;17.144;2024-01-06T02:44:32;98950.22;;;20.07;43.97
77281;BME280;66339;47.262;17.144;2024-01-06T02:47:02;98945.94;;;20.06;44.00
77281;BME280;66339;47.262;17.144;2024-01-06T02:49:30;98939.00;;;20.05;44.00
77281;BME280;66339;47.262;17.144;2024-01-06T02:52:00;98940.59;;;20.06;43.98
77281;BME280;66339;47.262;17.144;2024-01-06T02:54:27;98937.44;;;20.04;43.91
77281;BME280;66339;47.262;17.144;2024-01-06T02:56:54;98942.81;;;20.04;43.82
77281;BME280;66339;47.262;17.144;2024-01-06T02:59:23;98939.31;;;20.04;43.89
77281;BME280;66339;47.262;17.144;2024-01-06T03:01:54;98942.81;;;20.04;43.90
77281;BME280;66339;47.262;17.144;2024-01-06T03:04:23;98957.31;;;20.03;43.82
77281;BME280;66339;47.262;17.144;2024-01-06T03:06:51;98955.72;;;20.02;43.87
77281;BME280;66339;47.262;17.144;2024-01-06T03:09:21;98954.16;;;20.01;43.88
77281;BME280;66339;47.262;17.144;2024-01-06T03:11:50;98948.78;;;20.01;43.81
77281;BME280;66339;47.262;17.144;2024-01-06T03:14:22;98955.56;;;19.99;43.71
77281;BME280;66339;47.262;17.144;2024-01-06T03:16:49;98946.41;;;20.00;43.81
77281;BME280;66339;47.262;17.144;2024-01-06T03:19:16;98941.53;;;20.02;43.67
77281;BME280;66339;47.262;17.144;2024-01-06T03:21:43;98934.87;;;19.99;43.84
77281;BME280;66339;47.262;17.144;2024-01-06T03:24:13;98934.41;;;19.97;43.88
77281;BME280;66339;47.262;17.144;2024-01-06T03:26:43;98926.37;;;19.97;43.82
77281;BME280;66339;47.262;17.144;2024-01-06T03:29:13;98923.97;;;19.96;43.69
77281;BME280;66339;47.262;17.144;2024-01-06T03:31:43;98929.34;;;19.96;43.77
77281;BME280;66339;47.262;17.144;2024-01-06T03:34:14;98920.50;;;19.95;43.82
77281;BME280;66339;47.262;17.144;2024-01-06T03:36:44;98918.94;;;19.94;43.80
77281;BME280;66339;47.262;17.144;2024-01-06T03:39:15;98920.50;;;19.95;43.66
77281;BME280;66339;47.262;17.144;2024-01-06T03:41:50;98914.69;;;19.93;43.95
77281;BME280;66339;47.262;17.144;2024-01-06T03:44:21;98913.06;;;19.92;43.83
77281;BME280;66339;47.262;17.144;2024-01-06T03:46:47;98910.37;;;19.92;43.81
77281;BME280;66339;47.262;17.144;2024-01-06T03:49:20;98914.19;;;19.91;43.75
77281;BME280;66339;47.262;17.144;2024-01-06T03:51:52;98911.50;;;19.91;43.79
77281;BME280;66339;47.262;17.144;2024-01-06T03:54:22;98915.28;;;19.90;43.78
77281;BME280;66339;47.262;17.144;2024-01-06T03:56:55;98913.72;;;19.89;43.81
77281;BME280;66339;47.262;17.144;2024-01-06T03:59:21;98904.56;;;19.90;43.72
77281;BME280;66339;47.262;17.144;2024-01-06T04:01:51;98909.13;;;19.90;43.88
77281;BME280;66339;47.262;17.144;2024-01-06T04:04:19;98903.00;;;19.89;43.87
77281;BME280;66339;47.262;17.144;2024-01-06T04:06:46;98899.81;;;19.87;43.82
77281;BME280;66339;47.262;17.144;2024-01-06T04:09:16;98909.75;;;19.86;43.81
77281;BME280;66339;47.262;17.144;2024-01-06T04:11:44;98912.44;;;19.86;43.76
77281;BME280;66339;47.262;17.144;2024-01-06T04:14:11;98908.97;;;19.86;43.73
77281;BME280;66339;47.262;17.144;2024-01-06T04:16:38;98918.91;;;19.85;43.83
77281;BME280;66339;47.262;17.144;2024-01-06T04:19:08;98924.28;;;19.85;43.78
77281;BME280;66339;47.262;17.144;2024-01-06T04:21:39;98923.50;;;19.85;43.84
77281;BME280;66339;47.262;17.144;2024-01-06T04:24:09;98931.84;;;19.83;43.86
77281;BME280;66339;47.262;17.144;2024-01-06T04:26:36;98926.78;;;19.82;43.77
77281;BME280;66339;47.262;17.144;2024-01-06T04:29:02;98930.25;;;19.82;43.68
77281;BME280;66339;47.262;17.144;2024-01-06T04:31:32;98932.94;;;19.82;43.71
77281;BME280;66339;47.262;17.144;2024-01-06T04:34:01;98928.69;;;19.81;43.60
77281;BME280;66339;47.262;17.144;2024-01-06T04:36:34;98923.31;;;19.81;43.68
77281;BME280;66339;47.262;17.144;2024-01-06T04:39:07;98917.97;;;19.81;43.66
77281;BME280;66339;47.262;17.144;2024-01-06T04:41:37;98922.53;;;19.81;43.83
77281;BME280;66339;47.262;17.144;2024-01-06T04:44:11;98912.88;;;19.80;43.82
77281;BME280;66339;47.262;17.144;2024-01-06T04:46:43;98914.78;;;19.79;43.81
77281;BME280;66339;47.262;17.144;2024-01-06T04:49:18;98916.69;;;19.79;43.80
77281;BME280;66339;47.262;17.144;2024-01-06T04:51:48;98912.41;;;19.78;43.75
77281;BME280;66339;47.262;17.144;2024-01-06T04:54:18;98910.84;;;19.77;43.81
77281;BME280;66339;47.262;17.144;2024-01-06T04:56:48;98903.87;;;19.76;43.80
77281;BME280;66339;47.262;17.144;2024-01-06T04:59:17;98897.72;;;19.75;43.80
77281;BME280;66339;47.262;17.144;2024-01-06T05:01:44;98900.41;;;19.75;43.77
77281;BME280;66339;47.262;17.144;2024-01-06T05:04:14;98902.31;;;19.75;43.84
77281;BME280;66339;47.262;17.144;2024-01-06T05:06:44;98890.00;;;19.74;43.95
77281;BME280;66339;47.262;17.144;2024-01-06T05:09:16;98900.72;;;19.74;43.93
77281;BME280;66339;47.262;17.144;2024-01-06T05:11:46;98905.59;;;19.72;44.00
77281;BME280;66339;47.262;17.144;2024-01-06T05:14:16;98899.12;;;19.73;43.99
77281;BME280;66339;47.262;17.144;2024-01-06T05:16:46;98906.72;;;19.71;43.95
77281;BME280;66339;47.262;17.144;2024-01-06T05:19:13;98908.28;;;19.72;43.86
77281;BME280;66339;47.262;17.144;2024-01-06T05:21:40;98905.13;;;19.70;44.01
77281;BME280;66339;47.262;17.144;2024-01-06T05:24:08;98904.34;;;19.69;43.91
77281;BME280;66339;47.262;17.144;2024-01-06T05:26:38;98903.53;;;19.69;43.90
77281;BME280;66339;47.262;17.144;2024-01-06T05:29:05;98903.53;;;19.69;43.86
77281;BME280;66339;47.262;17.144;2024-01-06T05:31:32;98914.28;;;19.69;43.94
77281;BME280;66339;47.262;17.144;2024-01-06T05:33:59;98908.75;;;19.65;43.87
77281;BME280;66339;47.262;17.144;2024-01-06T05:36:26;98907.94;;;19.65;43.86
77281;BME280;66339;47.262;17.144;2024-01-06T05:38:56;98917.28;;;19.67;43.99
77281;BME280;66339;47.262;17.144;2024-01-06T05:41:26;98923.44;;;19.68;44.00
77281;BME280;66339;47.262;17.144;2024-01-06T05:43:55;98918.56;;;19.70;43.98
77281;BME280;66339;47.262;17.144;2024-01-06T05:46:23;98924.38;;;19.72;44.13
77281;BME280;66339;47.262;17.144;2024-01-06T05:48:56;98921.69;;;19.72;44.29
77281;BME280;66339;47.262;17.144;2024-01-06T05:51:30;98924.88;;;19.74;44.19
77281;BME280;66339;47.262;17.144;2024-01-06T05:54:03;98931.81;;;19.75;44.28
77281;BME280;66339;47.262;17.144;2024-01-06T05:56:30;98946.19;;;19.79;44.25
77281;BME280;66339;47.262;17.144;2024-01-06T05:58:57;98934.66;;;19.78;44.32
77281;BME280;66339;47.262;17.144;2024-01-06T06:01:23;98931.66;;;19.80;44.37
77281;BME280;66339;47.262;17.144;2024-01-06T06:03:55;98927.91;;;19.81;44.40
77281;BME280;66339;47.262;17.144;2024-01-06T06:06:26;98932.63;;;19.84;44.41
77281;BME280;66339;47.262;17.144;2024-01-06T06:09:00;98936.25;;;19.88;44.37
77281;BME280;66339;47.262;17.144;2024-01-06T06:11:27;98938.34;;;19.91;44.42
77281;BME280;66339;47.262;17.144;2024-01-06T06:13:58;98938.19;;;19.96;44.55
77281;BME280;66339;47.262;17.144;2024-01-06T06:16:25;98942.47;;;19.97;44.53
77281;BME280;66339;47.262;17.144;2024-01-06T06:18:51;98936.47;;;20.00;44.59
77281;BME280;66339;47.262;17.144;2024-01-06T06:21:20;98946.56;;;20.03;45.43
77281;BME280;66339;47.262;17.144;2024-01-06T06:23:54;98939.00;;;20.05;45.93
77281;BME280;66339;47.262;17.144;2024-01-06T06:26:25;98935.22;;;20.06;45.96
77281;BME280;66339;47.262;17.144;2024-01-06T06:28:58;98939.00;;;20.05;45.99
77281;BME280;66339;47.262;17.144;2024-01-06T06:31:30;98938.22;;;20.05;46.04
77281;BME280;66339;47.262;17.144;2024-01-06T06:34:00;98922.91;;;20.05;46.22
77281;BME280;66339;47.262;17.144;2024-01-06T06:36:31;98934.75;;;20.04;45.78
77281;BME280;66339;47.262;17.144;2024-01-06T06:39:00;98944.38;;;20.05;46.07
77281;BME280;66339;47.262;17.144;2024-01-06T06:41:27;98943.59;;;20.05;46.18
77281;BME280;66339;47.262;17.144;2024-01-06T06:43:57;98934.44;;;20.06;46.17
77281;BME280;66339;47.262;17.144;2024-01-06T06:46:26;98937.91;;;20.06;46.19
77281;BME280;66339;47.262;17.144;2024-01-06T06:48:56;98928.91;;;20.02;46.35
77281;BME280;66339;47.262;17.144;2024-01-06T06:51:23;98945.50;;;20.04;45.88
77281;BME280;66339;47.262;17.144;2024-01-06T06:53:53;98945.94;;;20.06;45.72
77281;BME280;66339;47.262;17.144;2024-01-06T06:56:23;98940.59;;;20.06;45.80
77281;BME280;66339;47.262;17.144;2024-01-06T06:58:54;98939.97;;;20.09;45.75
77281;BME280;66339;47.262;17.144;2024-01-06T07:01:20;98936.97;;;20.11;45.90
77281;BME280;66339;47.262;17.144;2024-01-06T07:03:47;98932.53;;;20.15;46.11
77281;BME280;66339;47.262;17.144;2024-01-06T07:06:20;98943.44;;;20.19;45.96
77281;BME280;66339;47.262;17.144;2024-01-06T07:08:49;98943.16;;;20.20;45.85
77281;BME280;66339;47.262;17.144;2024-01-06T07:11:22;98932.88;;;20.22;45.71
77281;BME280;66339;47.262;17.144;2024-01-06T07:13:53;98937.91;;;20.24;45.71
77281;BME280;66339;47.262;17.144;2024-01-06T07:16:20;98940.59;;;20.24;45.94
77281;BME280;66339;47.262;17.144;2024-01-06T07:18:49;98939.97;;;20.27;45.78
77281;BME280;66339;47.262;17.144;2024-01-06T07:21:19;98943.16;;;20.29;45.64
77281;BME280;66339;47.262;17.144;2024-01-06T07:23:51;98940.94;;;20.31;45.63
77281;BME280;66339;47.262;17.144;2024-01-06T07:26:18;98937.16;;;20.32;45.69
77281;BME280;66339;47.262;17.144;2024-01-06T07:28:46;98936.06;;;20.33;45.63
77281;BME280;66339;47.262;17.144;2024-01-06T07:31:21;98948.38;;;20.34;45.57
77281;BME280;66339;47.262;17.144;2024-01-06T07:33:51;98954.84;;;20.33;45.57
77281;BME280;66339;47.262;17.144;2024-01-06T07:36:18;98954.84;;;20.33;45.42
77281;BME280;66339;47.262;17.144;2024-01-06T07:38:53;98945.69;;;20.34;45.73
77281;BME280;66339;47.262;17.144;2024-01-06T07:41:21;98952.16;;;20.33;45.61
77281;BME280;66339;47.262;17.144;2024-01-06T07:43:51;98953.28;;;20.32;45.91
77281;BME280;66339;47.262;17.144;2024-01-06T07:46:17;98946.00;;;20.32;45.69
77281;BME280;66339;47.262;17.144;2024-01-06T07:48:49;98935.28;;;20.32;45.24
77281;BME280;66339;47.262;17.144;2024-01-06T07:51:22;98937.47;;;20.30;45.51
77281;BME280;66339;47.262;17.144;2024-01-06T07:53:49;98942.06;;;20.30;45.54
77281;BME280;66339;47.262;17.144;2024-01-06T07:56:16;98949.00;;;20.31;45.38
77281;BME280;66339;47.262;17.144;2024-01-06T07:58:46;98942.06;;;20.30;45.34
77281;BME280;66339;47.262;17.144;2024-01-06T08:01:16;98936.22;;;20.28;45.57
77281;BME280;66339;47.262;17.144;2024-01-06T08:03:43;98945.34;;;20.27;45.92
77281;BME280;66339;47.262;17.144;2024-01-06T08:06:19;98955.00;;;20.28;45.89
77281;BME280;66339;47.262;17.144;2024-01-06T08:08:52;98967.62;;;20.27;45.60
77281;BME280;66339;47.262;17.144;2024-01-06T08:11:25;98965.25;;;20.26;45.84
77281;BME280;66339;47.262;17.144;2024-01-06T08:13:57;98975.50;;;20.24;46.03
77281;BME280;66339;47.262;17.144;2024-01-06T08:16:30;98972.81;;;20.24;46.04
77281;BME280;66339;47.262;17.144;2024-01-06T08:19:16;98969.69;;;20.22;46.11
77281;BME280;66339;47.262;17.144;2024-01-06T08:21:54;98973.94;;;20.23;46.63
77281;BME280;66339;47.262;17.144;2024-01-06T08:24:36;98970.63;;;20.26;46.75
77281;BME280;66339;47.262;17.144;2024-01-06T08:27:12;98967.62;;;20.27;47.15
77281;BME280;66339;47.262;17.144;2024-01-06T08:29:54;98957.69;;;20.28;47.09
77281;BME280;66339;47.262;17.144;2024-01-06T08:32:32;98965.44;;;20.29;46.97
77281;BME280;66339;47.262;17.144;2024-01-06T08:35:08;98960.84;;;20.30;46.90
77281;BME280;66339;47.262;17.144;2024-01-06T08:37:34;98972.37;;;20.30;47.20
77281;BME280;66339;47.262;17.144;2024-01-06T08:40:02;98964.81;;;20.32;47.28
77281;BME280;66339;47.262;17.144;2024-01-06T08:42:35;98970.19;;;20.32;47.31
77281;BME280;66339;47.262;17.144;2024-01-06T08:45:10;98969.84;;;20.34;47.39
77281;BME280;66339;47.262;17.144;2024-01-06T08:47:44;98980.13;;;20.32;47.41
77281;BME280;66339;47.262;17.144;2024-01-06T08:50:22;98968.91;;;20.30;47.59
77281;BME280;66339;47.262;17.144;2024-01-06T08:52:50;98969.53;;;20.27;47.59
77281;BME280;66339;47.262;17.144;2024-01-06T08:55:23;98978.19;;;20.24;47.83
77281;BME280;66339;47.262;17.144;2024-01-06T08:57:50;98984.22;;;20.21;47.98
77281;BME280;66339;47.262;17.144;2024-01-06T09:00:20;98979.91;;;20.20;48.03
77281;BME280;66339;47.262;17.144;2024-01-06T09:02:52;98983.25;;;20.17;47.97
77281;BME280;66339;47.262;17.144;2024-01-06T09:05:22;98990.97;;;20.09;48.20
77281;BME280;66339;47.262;17.144;2024-01-06T09:07:53;98992.72;;;20.14;47.90
77281;BME280;66339;47.262;17.144;2024-01-06T09:10:24;99003.13;;;20.16;48.16
77281;BME280;66339;47.262;17.144;2024-01-06T09:12:57;98998.56;;;20.16;47.94
77281;BME280;66339;47.262;17.144;2024-01-06T09:15:27;99004.72;;;20.17;47.88
77281;BME280;66339;47.262;17.144;2024-01-06T09:17:59;99010.28;;;20.20;47.89
77281;BME280;66339;47.262;17.144;2024-01-06T09:20:29;99005.69;;;20.21;47.95
77281;BME280;66339;47.262;17.144;2024-01-06T09:22:56;99014.22;;;20.23;48.05
77281;BME280;66339;47.262;17.144;2024-01-06T09:25:28;99011.69;;;20.26;47.79
77281;BME280;66339;47.262;17.144;2024-01-06T09:27:55;99005.38;;;20.31;47.69
77281;BME280;66339;47.262;17.144;2024-01-06T09:30:34;99016.63;;;20.33;48.25
77281;BME280;66339;47.262;17.144;2024-01-06T09:33:15;99013.94;;;20.33;48.25
77281;BME280;66339;47.262;17.144;2024-01-06T09:35:43;99008.84;;;20.31;48.18
77281;BME280;66339;47.262;17.144;2024-01-06T09:38:13;99010.13;;;20.34;48.04
77281;BME280;66339;47.262;17.144;2024-01-06T09:40:42;99017.06;;;20.35;48.36
77281;BME280;66339;47.262;17.144;2024-01-06T09:43:12;99016.47;;;20.38;48.43
77281;BME280;66339;47.262;17.144;2024-01-06T09:45:42;99017.41;;;20.42;48.23
77281;BME280;66339;47.262;17.144;2024-01-06T09:48:15;99016.00;;;20.45;48.37
77281;BME280;66339;47.262;17.144;2024-01-06T09:50:47;99028.31;;;20.46;47.48
77281;BME280;66339;47.262;17.144;2024-01-06T09:53:25;99020.94;;;20.51;46.99
77281;BME280;66339;47.262;17.144;2024-01-06T09:55:59;99013.38;;;20.53;47.20
77281;BME280;66339;47.262;17.144;2024-01-06T09:58:32;99003.09;;;20.55;47.32
77281;BME280;66339;47.262;17.144;2024-01-06T10:01:03;99009.72;;;20.58;47.31
77281;BME280;66339;47.262;17.144;2024-01-06T10:03:33;99008.31;;;20.61;47.28
77281;BME280;66339;47.262;17.144;2024-01-06T10:06:00;98996.47;;;20.62;47.77
77281;BME280;66339;47.262;17.144;2024-01-06T10:08:34;99001.22;;;20.65;47.98
77281;BME280;66339;47.262;17.144;2024-01-06T10:11:05;98990.13;;;20.66;48.03
77281;BME280;66339;47.262;17.144;2024-01-06T10:13:35;98995.66;;;20.70;48.03
77281;BME280;66339;47.262;17.144;2024-01-06T10:16:03;99001.53;;;20.72;48.01
77281;BME280;66339;47.262;17.144;2024-01-06T10:18:34;99005.78;;;20.73;47.77
77281;BME280;66339;47.262;17.144;2024-01-06T10:21:05;99007.06;;;20.75;47.54
77281;BME280;66339;47.262;17.144;2024-01-06T10:23:36;99008.94;;;20.75;47.80
77281;BME280;66339;47.262;17.144;2024-01-06T10:26:12;99013.69;;;20.78;47.90
77281;BME280;66339;47.262;17.144;2024-01-06T10:28:47;99009.09;;;20.78;47.85
77281;BME280;66339;47.262;17.144;2024-01-06T10:31:15;99019.22;;;20.81;47.81
77281;BME280;66339;47.262;17.144;2024-01-06T10:33:46;99017.03;;;20.83;47.66
77281;BME280;66339;47.262;17.144;2024-01-06T10:36:17;99014.00;;;20.85;47.70
77281;BME280;66339;47.262;17.144;2024-01-06T10:38:45;99011.81;;;20.87;47.62
77281;BME280;66339;47.262;17.144;2024-01-06T10:41:17;99004.53;;;20.88;47.52
77281;BME280;66339;47.262;17.144;2024-01-06T10:43:45;98994.25;;;20.90;47.23
77281;BME280;66339;47.262;17.144;2024-01-06T10:46:19;98978.91;;;20.90;47.28
77281;BME280;66339;47.262;17.144;2024-01-06T10:48:50;98972.44;;;20.91;47.25
77281;BME280;66339;47.262;17.144;2024-01-06T10:51:21;98967.84;;;20.92;47.20
77281;BME280;66339;47.262;17.144;2024-01-06T10:53:56;98966.75;;;20.93;47.27
77281;BME280;66339;47.262;17.144;2024-01-06T10:56:25;98962.16;;;20.93;47.25
77281;BME280;66339;47.262;17.144;2024-01-06T10:58:56;98958.34;;;20.94;47.32
77281;BME280;66339;47.262;17.144;2024-01-06T11:01:26;98958.34;;;20.94;47.40
77281;BME280;66339;47.262;17.144;2024-01-06T11:04:03;98973.41;;;20.95;47.27
77281;BME280;66339;47.262;17.144;2024-01-06T11:06:39;98972.28;;;20.96;46.83
77281;BME280;66339;47.262;17.144;2024-01-06T11:09:19;98977.31;;;20.98;46.73
77281;BME280;66339;47.262;17.144;2024-01-06T11:11:47;98975.75;;;20.97;46.67
77281;BME280;66339;47.262;17.144;2024-01-06T11:14:22;98979.22;;;20.97;46.61
77281;BME280;66339;47.262;17.144;2024-01-06T11:16:54;98976.88;;;20.96;46.74
77281;BME280;66339;47.262;17.144;2024-01-06T11:19:46;98985.22;;;20.94;46.82
77281;BME280;66339;47.262;17.144;2024-01-06T11:22:29;98984.16;;;20.95;46.84
77281;BME280;66339;47.262;17.144;2024-01-06T11:25:05;98975.28;;;20.95;47.04
77281;BME280;66339;47.262;17.144;2024-01-06T11:27:39;98979.84;;;20.94;47.28
77281;BME280;66339;47.262;17.144;2024-01-06T11:30:29;98984.44;;;20.94;47.54
77281;BME280;66339;47.262;17.144;2024-01-06T11:32:56;98970.72;;;20.95;47.42
77281;BME280;66339;47.262;17.144;2024-01-06T11:35:27;98966.91;;;20.96;48.13
77281;BME280;66339;47.262;17.144;2024-01-06T11:38:07;98964.22;;;20.96;47.73
77281;BME280;66339;47.262;17.144;2024-01-06T11:40:57;98958.50;;;20.98;47.73
77281;BME280;66339;47.262;17.144;2024-01-06T11:43:28;98961.84;;;21.03;47.83
77281;BME280;66339;47.262;17.144;2024-01-06T11:46:00;98950.75;;;21.05;47.74
77281;BME280;66339;47.262;17.144;2024-01-06T11:48:32;98956.63;;;21.07;47.43
77281;BME280;66339;47.262;17.144;2024-01-06T11:51:06;98958.03;;;21.04;47.26
77281;BME280;66339;47.262;17.144;2024-01-06T11:53:34;98946.78;;;21.02;47.20
77281;BME280;66339;47.262;17.144;2024-01-06T11:56:02;98938.59;;;21.07;46.79
77281;BME280;66339;47.262;17.144;2024-01-06T11:58:32;98929.88;;;21.11;46.19
77281;BME280;66339;47.262;17.144;2024-01-06T12:01:01;98935.38;;;21.14;45.88
77281;BME280;66339;47.262;17.144;2024-01-06T12:03:29;98947.91;;;21.19;45.77
77281;BME280;66339;47.262;17.144;2024-01-06T12:06:02;98951.19;;;21.24;45.60
77281;BME280;66339;47.262;17.144;2024-01-06T12:08:34;98940.59;;;21.28;45.67
77281;BME280;66339;47.262;17.144;2024-01-06T12:11:05;98933.97;;;21.34;45.23
77281;BME280;66339;47.262;17.144;2024-01-06T12:13:36;98942.63;;;21.40;44.97
77281;BME280;66339;47.262;17.144;2024-01-06T12:16:05;98939.78;;;21.45;44.73
77281;BME280;66339;47.262;17.144;2024-01-06T12:18:38;98944.66;;;21.51;44.66
77281;BME280;66339;47.262;17.144;2024-01-06T12:21:09;98941.78;;;21.56;44.41
77281;BME280;66339;47.262;17.144;2024-01-06T12:23:40;98931.16;;;21.60;44.20
77281;BME280;66339;47.262;17.144;2024-01-06T12:26:13;98922.12;;;21.65;44.04
77281;BME280;66339;47.262;17.144;2024-01-06T12:28:50;98923.06;;;21.69;43.65
77281;BME280;66339;47.262;17.144;2024-01-06T12:31:20;98921.28;;;21.73;43.58
77281;BME280;66339;47.262;17.144;2024-01-06T12:33:49;98936.00;;;21.75;43.43
77281;BME280;66339;47.262;17.144;2024-01-06T12:36:20;98942.66;;;21.78;43.37
77281;BME280;66339;47.262;17.144;2024-01-06T12:38:59;98939.28;;;21.81;43.29
77281;BME280;66339;47.262;17.144;2024-01-06T12:41:30;98952.09;;;21.84;43.21
77281;BME280;66339;47.262;17.144;2024-01-06T12:43:59;98946.88;;;21.88;43.09
77281;BME280;66339;47.262;17.144;2024-01-06T12:46:27;98957.00;;;21.91;43.09
77281;BME280;66339;47.262;17.144;2024-01-06T12:48:58;98944.31;;;21.91;43.00
77281;BME280;66339;47.262;17.144;2024-01-06T12:51:31;98952.88;;;21.93;42.91
77281;BME280;66339;47.262;17.144;2024-01-06T12:53:59;98953.31;;;21.95;42.92
77281;BME280;66339;47.262;17.144;2024-01-06T12:56:31;98956.50;;;21.97;42.61
77281;BME280;66339;47.262;17.144;2024-01-06T12:59:02;98974.22;;;21.98;42.62
77281;BME280;66339;47.262;17.144;2024-01-06T13:01:35;98967.72;;;21.99;42.48
77281;BME280;66339;47.262;17.144;2024-01-06T13:04:05;98974.66;;;22.00;42.49
77281;BME280;66339;47.262;17.144;2024-01-06T13:06:33;98963.25;;;22.03;42.43